Terminal Aerodrome Forecast
Issued by NWS Tampa Bay Area, FL

Home | Current Version | Previous Version | Text Only | Print | Product List | Glossary On
Versions: 1 2 3 4 5 6 7 8
236
FTUS42 KTBW 232341
TAFSRQ
TAF
KSRQ 232341Z 2400/2424 29012KT P6SM SCT050
     FM240200 28008KT P6SM SCT050
     FM240900 27008KT P6SM BKN020 BKN050
     FM241400 28013KT P6SM SCT030 BKN050
     FM241600 29016G24KT P6SM SCT035 BKN050=

USA.gov is the U.S. government's official web portal to all federal, state and local government web resources and services.